sensor_id;sensor_type;location;lat;lon;timestamp;noise_LAeq;noise_LA_min;noise_LA_max;noise_LA01;noise_LA95
79200;Laerm;68628;48.714;9.472;2023-04-03T00:00:53;32.69;29.51;39.29;;
79200;Laerm;68628;48.714;9.472;2023-04-03T00:03:19;32.40;29.31;37.94;;
79200;Laerm;68628;48.714;9.472;2023-04-03T00:05:46;32.13;29.48;38.34;;
79200;Laerm;68628;48.714;9.472;2023-04-03T00:08:11;31.04;29.11;34.55;;
79200;Laerm;68628;48.714;9.472;2023-04-03T00:10:38;31.39;28.72;45.09;;
79200;Laerm;68628;48.714;9.472;2023-04-03T00:13:05;32.82;29.55;46.90;;
79200;Laerm;68628;48.714;9.472;2023-04-03T00:15:31;33.74;31.01;52.37;;
79200;Laerm;68628;48.714;9.472;2023-04-03T00:17:57;32.99;29.77;39.40;;
79200;Laerm;68628;48.714;9.472;2023-04-03T00:20:23;33.14;29.70;39.31;;
79200;Laerm;68628;48.714;9.472;2023-04-03T00:22:48;33.37;30.19;39.50;;
79200;Laerm;68628;48.714;9.472;2023-04-03T00:25:14;30.51;28.26;35.18;;
79200;Laerm;68628;48.714;9.472;2023-04-03T00:27:40;32.21;29.04;41.88;;
79200;Laerm;68628;48.714;9.472;2023-04-03T00:30:10;34.07;29.86;41.32;;
79200;Laerm;68628;48.714;9.472;2023-04-03T00:32:38;40.31;30.75;52.61;;
79200;Laerm;68628;48.714;9.472;2023-04-03T00:35:04;32.67;29.33;39.41;;
79200;Laerm;68628;48.714;9.472;2023-04-03T00:37:30;37.98;31.16;45.07;;
79200;Laerm;68628;48.714;9.472;2023-04-03T00:39:56;34.90;29.37;41.53;;
79200;Laerm;68628;48.714;9.472;2023-04-03T00:42:21;39.08;29.52;52.08;;
79200;Laerm;68628;48.714;9.472;2023-04-03T00:47:17;31.68;29.54;36.26;;
79200;Laerm;68628;48.714;9.472;2023-04-03T00:49:45;32.15;29.45;40.97;;
79200;Laerm;68628;48.714;9.472;2023-04-03T00:52:18;34.28;30.27;43.16;;
79200;Laerm;68628;48.714;9.472;2023-04-03T00:54:48;34.03;30.32;38.23;;
79200;Laerm;68628;48.714;9.472;2023-04-03T00:57:17;32.81;30.44;39.00;;
79200;Laerm;68628;48.714;9.472;2023-04-03T00:59:52;38.63;29.94;52.98;;
79200;Laerm;68628;48.714;9.472;2023-04-03T01:02:19;40.80;29.26;52.63;;
79200;Laerm;68628;48.714;9.472;2023-04-03T01:04:45;33.08;30.44;39.32;;
79200;Laerm;68628;48.714;9.472;2023-04-03T01:07:17;34.45;30.76;42.34;;
79200;Laerm;68628;48.714;9.472;2023-04-03T01:09:47;31.51;29.36;35.58;;
79200;Laerm;68628;48.714;9.472;2023-04-03T01:15:02;32.97;29.96;40.72;;
79200;Laerm;68628;48.714;9.472;2023-04-03T01:17:51;34.50;31.89;38.62;;
79200;Laerm;68628;48.714;9.472;2023-04-03T01:23:26;33.57;30.66;40.69;;
79200;Laerm;68628;48.714;9.472;2023-04-03T01:25:56;35.25;31.86;39.50;;
79200;Laerm;68628;48.714;9.472;2023-04-03T01:28:31;33.87;30.92;38.75;;
79200;Laerm;68628;48.714;9.472;2023-04-03T01:31:24;34.74;30.37;41.81;;
79200;Laerm;68628;48.714;9.472;2023-04-03T01:33:51;33.50;30.71;40.16;;
79200;Laerm;68628;48.714;9.472;2023-04-03T01:36:26;34.02;30.04;39.87;;
79200;Laerm;68628;48.714;9.472;2023-04-03T01:38:54;32.22;29.86;47.92;;
79200;Laerm;68628;48.714;9.472;2023-04-03T01:41:20;34.79;31.36;41.66;;
79200;Laerm;68628;48.714;9.472;2023-04-03T01:43:49;35.23;31.54;45.26;;
79200;Laerm;68628;48.714;9.472;2023-04-03T01:46:16;32.68;30.38;38.84;;
79200;Laerm;68628;48.714;9.472;2023-04-03T01:48:42;33.32;30.57;38.71;;
79200;Laerm;68628;48.714;9.472;2023-04-03T01:51:08;35.47;31.75;43.06;;
79200;Laerm;68628;48.714;9.472;2023-04-03T01:53:34;34.05;30.52;39.81;;
79200;Laerm;68628;48.714;9.472;2023-04-03T01:55:59;44.91;31.31;61.41;;
79200;Laerm;68628;48.714;9.472;2023-04-03T01:58:25;35.94;32.86;45.13;;
79200;Laerm;68628;48.714;9.472;2023-04-03T02:00:52;34.56;32.27;38.97;;
79200;Laerm;68628;48.714;9.472;2023-04-03T02:03:17;34.71;30.76;40.91;;
79200;Laerm;68628;48.714;9.472;2023-04-03T02:05:44;35.07;32.67;41.00;;
79200;Laerm;68628;48.714;9.472;2023-04-03T02:08:10;35.78;31.12;43.56;;
79200;Laerm;68628;48.714;9.472;2023-04-03T02:10:36;34.85;30.60;44.11;;
79200;Laerm;68628;48.714;9.472;2023-04-03T02:13:02;35.23;32.12;46.13;;
79200;Laerm;68628;48.714;9.472;2023-04-03T02:15:28;36.04;32.26;43.79;;
79200;Laerm;68628;48.714;9.472;2023-04-03T02:17:53;34.15;31.41;40.60;;
79200;Laerm;68628;48.714;9.472;2023-04-03T02:20:20;35.34;31.26;42.30;;
79200;Laerm;68628;48.714;9.472;2023-04-03T02:22:46;34.72;31.69;40.17;;
79200;Laerm;68628;48.714;9.472;2023-04-03T02:25:12;40.60;32.25;52.16;;
79200;Laerm;68628;48.714;9.472;2023-04-03T02:27:38;41.96;32.24;55.36;;
79200;Laerm;68628;48.714;9.472;2023-04-03T02:30:05;35.91;33.17;41.07;;
79200;Laerm;68628;48.714;9.472;2023-04-03T02:32:31;37.44;33.01;50.51;;
79200;Laerm;68628;48.714;9.472;2023-04-03T02:34:57;43.84;33.52;58.45;;
79200;Laerm;68628;48.714;9.472;2023-04-03T02:37:22;37.81;34.66;42.96;;
79200;Laerm;68628;48.714;9.472;2023-04-03T02:39:48;40.63;34.58;53.33;;
79200;Laerm;68628;48.714;9.472;2023-04-03T02:42:14;45.45;33.73;58.32;;
79200;Laerm;68628;48.714;9.472;2023-04-03T02:44:39;37.22;33.50;44.18;;
79200;Laerm;68628;48.714;9.472;2023-04-03T02:47:05;35.92;32.85;40.54;;
79200;Laerm;68628;48.714;9.472;2023-04-03T02:49:31;43.07;34.57;56.84;;
79200;Laerm;68628;48.714;9.472;2023-04-03T02:51:57;36.52;33.70;45.66;;
79200;Laerm;68628;48.714;9.472;2023-04-03T02:54:22;40.61;32.99;54.78;;
79200;Laerm;68628;48.714;9.472;2023-04-03T02:56:49;36.70;33.28;49.34;;
79200;Laerm;68628;48.714;9.472;2023-04-03T02:59:15;37.04;34.39;48.28;;
79200;Laerm;68628;48.714;9.472;2023-04-03T03:01:40;42.44;35.64;53.47;;
79200;Laerm;68628;48.714;9.472;2023-04-03T03:04:06;45.56;35.83;55.99;;
79200;Laerm;68628;48.714;9.472;2023-04-03T03:06:32;36.02;33.84;41.93;;
79200;Laerm;68628;48.714;9.472;2023-04-03T03:08:57;41.82;34.02;55.16;;
79200;Laerm;68628;48.714;9.472;2023-04-03T03:11:23;42.51;35.09;57.28;;
79200;Laerm;68628;48.714;9.472;2023-04-03T03:13:49;38.04;34.51;45.86;;
79200;Laerm;68628;48.714;9.472;2023-04-03T03:16:14;37.42;35.19;44.45;;
79200;Laerm;68628;48.714;9.472;2023-04-03T03:18:40;44.54;37.03;55.84;;
79200;Laerm;68628;48.714;9.472;2023-04-03T03:21:06;38.54;35.50;42.91;;
79200;Laerm;68628;48.714;9.472;2023-04-03T03:23:33;46.31;35.14;59.70;;
79200;Laerm;68628;48.714;9.472;2023-04-03T03:26:04;42.20;35.52;53.42;;
79200;Laerm;68628;48.714;9.472;2023-04-03T03:28:32;43.06;36.24;55.69;;
79200;Laerm;68628;48.714;9.472;2023-04-03T03:30:58;47.80;37.33;58.52;;
79200;Laerm;68628;48.714;9.472;2023-04-03T03:33:25;45.23;37.06;57.62;;
79200;Laerm;68628;48.714;9.472;2023-04-03T03:35:52;46.80;37.21;59.61;;
79200;Laerm;68628;48.714;9.472;2023-04-03T03:38:18;44.81;36.69;57.19;;
79200;Laerm;68628;48.714;9.472;2023-04-03T03:40:44;48.66;37.63;62.29;;
79200;Laerm;68628;48.714;9.472;2023-04-03T03:43:10;46.02;37.03;57.47;;
79200;Laerm;68628;48.714;9.472;2023-04-03T03:45:35;46.67;36.94;58.56;;
79200;Laerm;68628;48.714;9.472;2023-04-03T03:48:07;49.98;38.96;59.90;;
79200;Laerm;68628;48.714;9.472;2023-04-03T03:50:33;46.11;38.68;57.54;;
79200;Laerm;68628;48.714;9.472;2023-04-03T03:52:59;45.94;38.12;56.68;;
79200;Laerm;68628;48.714;9.472;2023-04-03T03:55:25;47.58;38.47;58.12;;
79200;Laerm;68628;48.714;9.472;2023-04-03T03:57:54;48.25;36.93;57.61;;
79200;Laerm;68628;48.714;9.472;2023-04-03T04:00:20;45.48;37.58;58.18;;
79200;Laerm;68628;48.714;9.472;2023-04-03T04:02:46;49.03;39.52;57.94;;
79200;Laerm;68628;48.714;9.472;2023-04-03T04:05:12;47.48;39.12;56.80;;
79200;Laerm;68628;48.714;9.472;2023-04-03T04:07:40;46.87;39.08;58.60;;
79200;Laerm;68628;48.714;9.472;2023-04-03T04:10:07;48.78;39.17;58.14;;
79200;Laerm;68628;48.714;9.472;2023-04-03T04:12:32;47.49;37.84;57.21;;
79200;Laerm;68628;48.714;9.472;2023-04-03T04:14:58;48.91;39.40;58.87;;
79200;Laerm;68628;48.714;9.472;2023-04-03T04:17:24;49.64;38.83;59.82;;
79200;Laerm;68628;48.714;9.472;2023-04-03T04:19:49;50.31;39.66;62.98;;
79200;Laerm;68628;48.714;9.472;2023-04-03T04:22:15;54.24;40.45;65.01;;
79200;Laerm;68628;48.714;9.472;2023-04-03T04:24:43;53.54;41.40;63.88;;
79200;Laerm;68628;48.714;9.472;2023-04-03T04:27:09;52.62;40.38;63.33;;
79200;Laerm;68628;48.714;9.472;2023-04-03T04:29:34;52.79;40.23;72.85;;
79200;Laerm;68628;48.714;9.472;2023-04-03T04:32:04;50.88;40.14;65.31;;
79200;Laerm;68628;48.714;9.472;2023-04-03T04:34:30;49.80;40.74;59.81;;
79200;Laerm;68628;48.714;9.472;2023-04-03T04:36:56;52.55;40.58;67.43;;
79200;Laerm;68628;48.714;9.472;2023-04-03T04:39:22;51.96;40.59;63.23;;
79200;Laerm;68628;48.714;9.472;2023-04-03T04:41:48;48.73;40.12;58.43;;
79200;Laerm;68628;48.714;9.472;2023-04-03T04:44:13;47.45;39.53;57.89;;
79200;Laerm;68628;48.714;9.472;2023-04-03T04:46:42;49.72;40.54;59.21;;
79200;Laerm;68628;48.714;9.472;2023-04-03T04:49:07;53.42;40.03;68.01;;
79200;Laerm;68628;48.714;9.472;2023-04-03T04:51:33;48.65;39.71;68.50;;
79200;Laerm;68628;48.714;9.472;2023-04-03T04:54:01;50.32;40.71;62.82;;
79200;Laerm;68628;48.714;9.472;2023-04-03T04:56:27;48.91;41.03;57.29;;
79200;Laerm;68628;48.714;9.472;2023-04-03T04:58:53;47.75;39.18;58.38;;
79200;Laerm;68628;48.714;9.472;2023-04-03T05:01:21;44.53;39.32;54.66;;
79200;Laerm;68628;48.714;9.472;2023-04-03T05:03:47;50.14;40.66;58.73;;
79200;Laerm;68628;48.714;9.472;2023-04-03T05:06:16;47.58;40.09;56.13;;
79200;Laerm;68628;48.714;9.472;2023-04-03T05:08:42;46.93;40.13;58.51;;
79200;Laerm;68628;48.714;9.472;2023-04-03T05:11:07;47.87;38.98;56.55;;
79200;Laerm;68628;48.714;9.472;2023-04-03T05:13:35;47.96;40.30;58.99;;
79200;Laerm;68628;48.714;9.472;2023-04-03T05:16:01;52.99;42.83;64.37;;
79200;Laerm;68628;48.714;9.472;2023-04-03T05:18:26;47.28;39.93;57.36;;
79200;Laerm;68628;48.714;9.472;2023-04-03T05:20:52;50.96;39.05;65.95;;
79200;Laerm;68628;48.714;9.472;2023-04-03T05:23:18;45.25;39.22;54.86;;
79200;Laerm;68628;48.714;9.472;2023-04-03T05:25:44;49.02;39.43;56.95;;
79200;Laerm;68628;48.714;9.472;2023-04-03T05:28:12;51.37;39.39;65.66;;
79200;Laerm;68628;48.714;9.472;2023-04-03T05:30:41;47.18;38.33;60.69;;
79200;Laerm;68628;48.714;9.472;2023-04-03T05:33:09;48.17;39.34;59.89;;
79200;Laerm;68628;48.714;9.472;2023-04-03T05:35:37;45.64;39.57;56.71;;
79200;Laerm;68628;48.714;9.472;2023-04-03T05:38:11;44.93;39.99;54.29;;
79200;Laerm;68628;48.714;9.472;2023-04-03T05:40:37;53.16;39.89;66.07;;
79200;Laerm;68628;48.714;9.472;2023-04-03T05:43:08;46.48;39.41;58.52;;
79200;Laerm;68628;48.714;9.472;2023-04-03T05:45:33;47.09;39.07;60.14;;
79200;Laerm;68628;48.714;9.472;2023-04-03T05:48:02;51.22;39.42;65.47;;
79200;Laerm;68628;48.714;9.472;2023-04-03T05:50:28;47.13;40.17;58.00;;
79200;Laerm;68628;48.714;9.472;2023-04-03T05:52:57;46.74;39.80;61.67;;
79200;Laerm;68628;48.714;9.472;2023-04-03T05:55:24;52.03;39.38;67.69;;
79200;Laerm;68628;48.714;9.472;2023-04-03T05:57:50;49.27;39.59;63.07;;
79200;Laerm;68628;48.714;9.472;2023-04-03T06:00:16;49.62;39.65;58.29;;
79200;Laerm;68628;48.714;9.472;2023-04-03T06:02:42;53.58;39.65;65.23;;
79200;Laerm;68628;48.714;9.472;2023-04-03T06:05:09;49.27;40.04;57.86;;
79200;Laerm;68628;48.714;9.472;2023-04-03T06:07:44;52.65;39.82;65.88;;
79200;Laerm;68628;48.714;9.472;2023-04-03T06:10:12;48.85;39.83;58.75;;
79200;Laerm;68628;48.714;9.472;2023-04-03T06:12:38;46.67;39.33;57.02;;
79200;Laerm;68628;48.714;9.472;2023-04-03T06:15:10;47.70;40.29;60.43;;
79200;Laerm;68628;48.714;9.472;2023-04-03T06:17:44;47.27;39.05;59.99;;
79200;Laerm;68628;48.714;9.472;2023-04-03T06:20:13;49.55;40.32;58.85;;
79200;Laerm;68628;48.714;9.472;2023-04-03T06:22:39;47.71;40.40;55.14;;
79200;Laerm;68628;48.714;9.472;2023-04-03T06:25:11;48.56;39.66;61.76;;
79200;Laerm;68628;48.714;9.472;2023-04-03T06:27:38;47.06;40.23;54.87;;
79200;Laerm;68628;48.714;9.472;2023-04-03T06:30:09;46.34;40.09;57.37;;
79200;Laerm;68628;48.714;9.472;2023-04-03T06:32:49;46.59;39.97;57.96;;
79200;Laerm;68628;48.714;9.472;2023-04-03T06:35:15;54.76;40.27;69.85;;
79200;Laerm;68628;48.714;9.472;2023-04-03T06:37:41;46.42;40.43;56.66;;
79200;Laerm;68628;48.714;9.472;2023-04-03T06:40:15;51.43;40.64;64.53;;
79200;Laerm;68628;48.714;9.472;2023-04-03T06:42:46;52.46;40.66;71.94;;
79200;Laerm;68628;48.714;9.472;2023-04-03T06:45:20;49.76;40.78;59.94;;
79200;Laerm;68628;48.714;9.472;2023-04-03T06:47:47;46.14;40.21;56.69;;
79200;Laerm;68628;48.714;9.472;2023-04-03T06:50:12;45.09;39.98;55.33;;
79200;Laerm;68628;48.714;9.472;2023-04-03T06:52:40;50.10;40.21;63.18;;
79200;Laerm;68628;48.714;9.472;2023-04-03T06:55:08;47.38;39.36;65.20;;
79200;Laerm;68628;48.714;9.472;2023-04-03T06:57:35;47.92;39.13;58.87;;
79200;Laerm;68628;48.714;9.472;2023-04-03T07:00:06;50.93;40.67;63.20;;
79200;Laerm;68628;48.714;9.472;2023-04-03T07:02:33;49.61;39.68;67.97;;
79200;Laerm;68628;48.714;9.472;2023-04-03T07:05:04;49.71;40.25;58.92;;
79200;Laerm;68628;48.714;9.472;2023-04-03T07:07:30;48.90;39.14;57.35;;
79200;Laerm;68628;48.714;9.472;2023-04-03T07:09:56;50.05;41.04;64.49;;
79200;Laerm;68628;48.714;9.472;2023-04-03T07:12:22;45.70;40.13;57.46;;
79200;Laerm;68628;48.714;9.472;2023-04-03T07:14:48;47.72;38.67;66.37;;
79200;Laerm;68628;48.714;9.472;2023-04-03T07:17:14;46.81;37.93;57.87;;
79200;Laerm;68628;48.714;9.472;2023-04-03T07:19:40;50.51;39.23;68.78;;
79200;Laerm;68628;48.714;9.472;2023-04-03T07:22:11;49.33;39.19;63.60;;
79200;Laerm;68628;48.714;9.472;2023-04-03T07:24:37;49.21;39.08;59.96;;
79200;Laerm;68628;48.714;9.472;2023-04-03T07:27:03;47.96;38.38;56.57;;
79200;Laerm;68628;48.714;9.472;2023-04-03T07:29:43;46.31;38.65;58.09;;
79200;Laerm;68628;48.714;9.472;2023-04-03T07:32:10;45.42;38.75;58.15;;
79200;Laerm;68628;48.714;9.472;2023-04-03T07:34:39;41.70;38.30;52.20;;
79200;Laerm;68628;48.714;9.472;2023-04-03T07:39:44;48.98;37.98;66.42;;
79200;Laerm;68628;48.714;9.472;2023-04-03T07:42:13;48.59;38.60;67.99;;
79200;Laerm;68628;48.714;9.472;2023-04-03T07:44:41;52.52;39.03;68.83;;
79200;Laerm;68628;48.714;9.472;2023-04-03T07:47:06;48.85;39.42;58.68;;
79200;Laerm;68628;48.714;9.472;2023-04-03T07:49:38;46.37;38.33;59.83;;
79200;Laerm;68628;48.714;9.472;2023-04-03T07:52:06;46.70;38.59;59.36;;
79200;Laerm;68628;48.714;9.472;2023-04-03T07:54:44;46.06;38.33;61.17;;
79200;Laerm;68628;48.714;9.472;2023-04-03T07:57:09;51.27;38.91;70.72;;
79200;Laerm;68628;48.714;9.472;2023-04-03T07:59:35;51.60;39.59;69.81;;
79200;Laerm;68628;48.714;9.472;2023-04-03T08:02:01;48.76;38.53;61.20;;
79200;Laerm;68628;48.714;9.472;2023-04-03T08:04:30;51.31;39.71;64.73;;
79200;Laerm;68628;48.714;9.472;2023-04-03T08:06:58;47.77;38.99;64.78;;
79200;Laerm;68628;48.714;9.472;2023-04-03T08:09:26;44.63;37.59;54.43;;
79200;Laerm;68628;48.714;9.472;2023-04-03T08:11:54;52.52;38.70;65.13;;
79200;Laerm;68628;48.714;9.472;2023-04-03T08:14:20;48.93;39.55;63.52;;
79200;Laerm;68628;48.714;9.472;2023-04-03T08:16:48;48.02;39.37;60.18;;
79200;Laerm;68628;48.714;9.472;2023-04-03T08:19:21;51.81;38.75;68.75;;
79200;Laerm;68628;48.714;9.472;2023-04-03T08:21:47;49.62;37.98;67.11;;
79200;Laerm;68628;48.714;9.472;2023-04-03T08:24:15;55.33;38.53;74.00;;
79200;Laerm;68628;48.714;9.472;2023-04-03T08:26:41;48.09;39.18;57.36;;
79200;Laerm;68628;48.714;9.472;2023-04-03T08:29:06;51.60;39.77;64.85;;
79200;Laerm;68628;48.714;9.472;2023-04-03T08:31:39;45.42;38.08;62.80;;
79200;Laerm;68628;48.714;9.472;2023-04-03T08:34:05;46.75;37.59;58.16;;
79200;Laerm;68628;48.714;9.472;2023-04-03T08:36:42;47.33;37.76;59.99;;
79200;Laerm;68628;48.714;9.472;2023-04-03T08:39:15;49.36;38.69;61.70;;
79200;Laerm;68628;48.714;9.472;2023-04-03T08:41:44;57.20;39.45;80.56;;
79200;Laerm;68628;48.714;9.472;2023-04-03T08:47:29;52.54;39.92;65.74;;
79200;Laerm;68628;48.714;9.472;2023-04-03T08:50:11;52.53;38.43;71.33;;
79200;Laerm;68628;48.714;9.472;2023-04-03T08:52:56;49.01;40.35;64.46;;
79200;Laerm;68628;48.714;9.472;2023-04-03T08:55:55;52.62;38.57;68.68;;
79200;Laerm;68628;48.714;9.472;2023-04-03T08:58:49;51.07;40.57;60.33;;
79200;Laerm;68628;48.714;9.472;2023-04-03T09:01:37;47.66;39.36;62.11;;
79200;Laerm;68628;48.714;9.472;2023-04-03T09:04:16;46.13;40.09;55.59;;
79200;Laerm;68628;48.714;9.472;2023-04-03T09:06:58;52.23;39.12;70.98;;
79200;Laerm;68628;48.714;9.472;2023-04-03T09:09:35;53.94;37.64;73.56;;
79200;Laerm;68628;48.714;9.472;2023-04-03T09:12:34;47.72;38.80;59.85;;
79200;Laerm;68628;48.714;9.472;2023-04-03T09:15:23;49.09;39.48;69.31;;
79200;Laerm;68628;48.714;9.472;2023-04-03T09:23:34;58.76;40.92;75.75;;
79200;Laerm;68628;48.714;9.472;2023-04-03T09:26:09;48.39;39.24;61.30;;
79200;Laerm;68628;48.714;9.472;2023-04-03T09:28:41;54.94;39.93;77.37;;
79200;Laerm;68628;48.714;9.472;2023-04-03T09:31:44;49.30;38.45;61.98;;
79200;Laerm;68628;48.714;9.472;2023-04-03T09:34:26;53.37;40.00;67.60;;
79200;Laerm;68628;48.714;9.472;2023-04-03T09:37:00;48.43;38.65;62.92;;
79200;Laerm;68628;48.714;9.472;2023-04-03T09:39:53;50.99;38.80;67.56;;
79200;Laerm;68628;48.714;9.472;2023-04-03T09:42:25;50.44;39.03;66.59;;
79200;Laerm;68628;48.714;9.472;2023-04-03T09:45:04;47.38;36.95;58.57;;
79200;Laerm;68628;48.714;9.472;2023-04-03T09:47:36;56.77;39.81;68.91;;
79200;Laerm;68628;48.714;9.472;2023-04-03T09:52:50;52.41;39.24;69.05;;
79200;Laerm;68628;48.714;9.472;2023-04-03T09:55:44;50.50;40.65;65.37;;
79200;Laerm;68628;48.714;9.472;2023-04-03T09:58:46;47.89;39.08;61.18;;
79200;Laerm;68628;48.714;9.472;2023-04-03T10:01:35;50.18;38.78;66.58;;
79200;Laerm;68628;48.714;9.472;2023-04-03T10:04:21;46.05;37.29;60.22;;
79200;Laerm;68628;48.714;9.472;2023-04-03T10:06:53;48.25;39.16;63.14;;
79200;Laerm;68628;48.714;9.472;2023-04-03T10:09:32;41.92;36.60;61.84;;
79200;Laerm;68628;48.714;9.472;2023-04-03T10:12:07;53.91;38.18;73.86;;
79200;Laerm;68628;48.714;9.472;2023-04-03T10:14:59;52.24;38.59;69.13;;
79200;Laerm;68628;48.714;9.472;2023-04-03T10:18:05;51.61;38.96;68.42;;
79200;Laerm;68628;48.714;9.472;2023-04-03T10:20:47;52.97;39.62;67.76;;
79200;Laerm;68628;48.714;9.472;2023-04-03T10:36:28;48.46;40.43;63.39;;
79200;Laerm;68628;48.714;9.472;2023-04-03T10:39:31;52.60;41.58;67.78;;
79200;Laerm;68628;48.714;9.472;2023-04-03T10:42:14;51.56;40.93;67.62;;
79200;Laerm;68628;48.714;9.472;2023-04-03T10:45:32;52.12;40.74;67.56;;
79200;Laerm;68628;48.714;9.472;2023-04-03T10:48:42;48.81;39.02;60.93;;
79200;Laerm;68628;48.714;9.472;2023-04-03T10:51:43;45.20;36.68;55.90;;
79200;Laerm;68628;48.714;9.472;2023-04-03T10:55:32;49.80;36.66;59.92;;
79200;Laerm;68628;48.714;9.472;2023-04-03T10:57:32;48.74;38.73;57.37;;
79200;Laerm;68628;48.714;9.472;2023-04-03T11:00:25;49.14;38.39;61.34;;
79200;Laerm;68628;48.714;9.472;2023-04-03T11:03:10;54.18;39.30;69.62;;
79200;Laerm;68628;48.714;9.472;2023-04-03T11:05:50;50.43;37.66;63.52;;
79200;Laerm;68628;48.714;9.472;2023-04-03T11:08:33;49.92;39.07;67.41;;
79200;Laerm;68628;48.714;9.472;2023-04-03T11:11:13;53.50;39.70;74.07;;
79200;Laerm;68628;48.714;9.472;2023-04-03T11:16:36;53.96;40.00;70.90;;
79200;Laerm;68628;48.714;9.472;2023-04-03T11:19:39;48.12;40.39;56.39;;
79200;Laerm;68628;48.714;9.472;2023-04-03T11:22:21;46.74;39.67;54.93;;
79200;Laerm;68628;48.714;9.472;2023-04-03T11:27:51;53.49;40.76;75.30;;
79200;Laerm;68628;48.714;9.472;2023-04-03T11:31:12;54.17;40.15;68.90;;
79200;Laerm;68628;48.714;9.472;2023-04-03T11:34:05;50.16;40.29;63.68;;
79200;Laerm;68628;48.714;9.472;2023-04-03T11:36:48;49.30;41.41;58.83;;
79200;Laerm;68628;48.714;9.472;2023-04-03T11:39:31;46.11;39.83;58.11;;
79200;Laerm;68628;48.714;9.472;2023-04-03T11:42:17;51.83;39.87;66.60;;
79200;Laerm;68628;48.714;9.472;2023-04-03T11:50:51;46.18;35.79;60.21;;
79200;Laerm;68628;48.714;9.472;2023-04-03T11:53:40;47.97;36.84;65.86;;
79200;Laerm;68628;48.714;9.472;2023-04-03T12:01:54;47.55;38.53;60.23;;
79200;Laerm;68628;48.714;9.472;2023-04-03T12:04:24;48.14;38.30;57.50;;
79200;Laerm;68628;48.714;9.472;2023-04-03T12:07:18;48.39;39.94;61.84;;
79200;Laerm;68628;48.714;9.472;2023-04-03T12:12:38;53.64;37.88;70.43;;
79200;Laerm;68628;48.714;9.472;2023-04-03T12:15:55;54.06;37.47;75.84;;
79200;Laerm;68628;48.714;9.472;2023-04-03T12:26:46;56.90;38.11;65.59;;
79200;Laerm;68628;48.714;9.472;2023-04-03T12:43:55;56.63;38.08;74.11;;
79200;Laerm;68628;48.714;9.472;2023-04-03T12:46:49;50.30;37.14;64.34;;
79200;Laerm;68628;48.714;9.472;2023-04-03T12:49:49;49.61;38.79;65.68;;
79200;Laerm;68628;48.714;9.472;2023-04-03T12:55:07;55.83;38.03;70.29;;
79200;Laerm;68628;48.714;9.472;2023-04-03T12:57:38;55.82;41.77;74.00;;
79200;Laerm;68628;48.714;9.472;2023-04-03T13:00:34;48.84;39.12;58.07;;
79200;Laerm;68628;48.714;9.472;2023-04-03T13:03:24;50.36;39.75;62.37;;
79200;Laerm;68628;48.714;9.472;2023-04-03T13:06:02;48.79;38.95;63.31;;
79200;Laerm;68628;48.714;9.472;2023-04-03T13:08:40;50.70;40.10;66.92;;
79200;Laerm;68628;48.714;9.472;2023-04-03T13:11:30;52.59;39.09;67.92;;
79200;Laerm;68628;48.714;9.472;2023-04-03T13:14:05;46.90;39.29;60.75;;
79200;Laerm;68628;48.714;9.472;2023-04-03T13:16:52;50.98;40.57;61.37;;
79200;Laerm;68628;48.714;9.472;2023-04-03T13:19:22;49.81;37.71;62.02;;
79200;Laerm;68628;48.714;9.472;2023-04-03T13:21:53;49.18;37.18;62.29;;
79200;Laerm;68628;48.714;9.472;2023-04-03T13:24:22;52.10;40.37;67.92;;
79200;Laerm;68628;48.714;9.472;2023-04-03T13:26:54;51.12;39.70;64.64;;
79200;Laerm;68628;48.714;9.472;2023-04-03T13:29:33;50.97;38.08;69.63;;
79200;Laerm;68628;48.714;9.472;2023-04-03T13:32:05;48.72;39.35;59.33;;
79200;Laerm;68628;48.714;9.472;2023-04-03T13:34:44;45.07;36.49;60.04;;
79200;Laerm;68628;48.714;9.472;2023-04-03T13:37:27;47.45;36.83;57.06;;
79200;Laerm;68628;48.714;9.472;2023-04-03T13:40:11;47.26;37.11;64.71;;
79200;Laerm;68628;48.714;9.472;2023-04-03T13:42:40;47.79;36.80;59.09;;
79200;Laerm;68628;48.714;9.472;2023-04-03T13:45:26;48.98;37.94;64.62;;
79200;Laerm;68628;48.714;9.472;2023-04-03T13:48:19;50.14;37.69;63.57;;
79200;Laerm;68628;48.714;9.472;2023-04-03T13:51:18;52.43;37.15;64.84;;
79200;Laerm;68628;48.714;9.472;2023-04-03T13:54:19;53.11;36.49;70.62;;
79200;Laerm;68628;48.714;9.472;2023-04-03T13:56:45;53.13;38.09;72.78;;
79200;Laerm;68628;48.714;9.472;2023-04-03T14:01:47;45.53;36.88;54.52;;
79200;Laerm;68628;48.714;9.472;2023-04-03T14:04:31;48.23;36.24;64.20;;
79200;Laerm;68628;48.714;9.472;2023-04-03T14:06:58;44.00;37.54;53.69;;
79200;Laerm;68628;48.714;9.472;2023-04-03T14:09:27;44.34;37.32;55.13;;
79200;Laerm;68628;48.714;9.472;2023-04-03T14:12:07;47.98;39.84;58.68;;
79200;Laerm;68628;48.714;9.472;2023-04-03T14:14:42;48.55;37.65;66.01;;
79200;Laerm;68628;48.714;9.472;2023-04-03T14:17:24;46.30;36.76;55.00;;
79200;Laerm;68628;48.714;9.472;2023-04-03T14:20:15;46.21;37.45;56.45;;
79200;Laerm;68628;48.714;9.472;2023-04-03T14:22:54;50.16;38.81;60.40;;
79200;Laerm;68628;48.714;9.472;2023-04-03T14:25:22;50.14;39.77;60.93;;
79200;Laerm;68628;48.714;9.472;2023-04-03T14:27:53;50.41;37.86;62.76;;
79200;Laerm;68628;48.714;9.472;2023-04-03T14:30:36;53.55;41.59;65.84;;
79200;Laerm;68628;48.714;9.472;2023-04-03T14:33:15;50.85;38.40;64.97;;
79200;Laerm;68628;48.714;9.472;2023-04-03T14:35:52;51.00;39.03;63.79;;
79200;Laerm;68628;48.714;9.472;2023-04-03T14:38:29;47.54;38.80;61.07;;
79200;Laerm;68628;48.714;9.472;2023-04-03T14:40:56;51.23;38.72;62.79;;
79200;Laerm;68628;48.714;9.472;2023-04-03T14:43:22;49.57;39.09;65.40;;
79200;Laerm;68628;48.714;9.472;2023-04-03T14:45:50;48.17;39.20;58.87;;
79200;Laerm;68628;48.714;9.472;2023-04-03T14:48:27;46.45;37.33;59.09;;
79200;Laerm;68628;48.714;9.472;2023-04-03T14:50:53;47.40;37.57;60.73;;
79200;Laerm;68628;48.714;9.472;2023-04-03T14:53:21;46.84;37.38;59.64;;
79200;Laerm;68628;48.714;9.472;2023-04-03T14:55:54;50.28;37.61;65.01;;
79200;Laerm;68628;48.714;9.472;2023-04-03T14:58:23;52.83;37.08;73.69;;
79200;Laerm;68628;48.714;9.472;2023-04-03T15:00:49;50.06;38.35;65.96;;
79200;Laerm;68628;48.714;9.472;2023-04-03T15:03:19;50.24;38.06;68.19;;
79200;Laerm;68628;48.714;9.472;2023-04-03T15:05:48;48.06;39.49;55.89;;
79200;Laerm;68628;48.714;9.472;2023-04-03T15:08:27;52.39;37.55;62.85;;
79200;Laerm;68628;48.714;9.472;2023-04-03T15:10:57;52.85;40.50;68.26;;
79200;Laerm;68628;48.714;9.472;2023-04-03T15:13:24;52.97;37.56;64.67;;
79200;Laerm;68628;48.714;9.472;2023-04-03T15:15:52;46.91;34.82;61.91;;
79200;Laerm;68628;48.714;9.472;2023-04-03T15:18:26;52.21;38.48;68.94;;
79200;Laerm;68628;48.714;9.472;2023-04-03T15:20:54;46.94;36.79;61.48;;
79200;Laerm;68628;48.714;9.472;2023-04-03T15:23:25;45.51;37.31;54.81;;
79200;Laerm;68628;48.714;9.472;2023-04-03T15:25:53;49.93;40.19;65.74;;
79200;Laerm;68628;48.714;9.472;2023-04-03T15:28:34;48.06;39.52;56.82;;
79200;Laerm;68628;48.714;9.472;2023-04-03T15:31:02;45.47;37.81;54.81;;
79200;Laerm;68628;48.714;9.472;2023-04-03T15:33:33;47.22;36.76;59.31;;
79200;Laerm;68628;48.714;9.472;2023-04-03T15:36:00;51.67;39.96;62.85;;
79200;Laerm;68628;48.714;9.472;2023-04-03T15:38:26;47.55;37.82;59.23;;